sensor_id;sensor_type;location;lat;lon;timestamp;P1;durP1;ratioP1;P2;durP2;ratioP2
73132;SDS011;61320;52.008;4.530;2023-08-06T00:00:06;8.34;;;8.34;;
73132;SDS011;61320;52.008;4.530;2023-08-06T00:02:32;8.58;;;8.58;;
73132;SDS011;61320;52.008;4.530;2023-08-06T00:04:57;8.75;;;8.75;;
73132;SDS011;61320;52.008;4.530;2023-08-06T00:07:23;8.26;;;8.26;;
73132;SDS011;61320;52.008;4.530;2023-08-06T00:09:48;8.69;;;8.69;;
73132;SDS011;61320;52.008;4.530;2023-08-06T00:12:14;8.28;;;8.28;;
73132;SDS011;61320;52.008;4.530;2023-08-06T00:14:40;8.50;;;8.50;;
73132;SDS011;61320;52.008;4.530;2023-08-06T00:17:05;9.09;;;9.09;;
73132;SDS011;61320;52.008;4.530;2023-08-06T00:19:31;8.39;;;8.39;;
73132;SDS011;61320;52.008;4.530;2023-08-06T00:21:57;8.61;;;8.61;;
73132;SDS011;61320;52.008;4.530;2023-08-06T00:24:23;9.48;;;9.48;;
73132;SDS011;61320;52.008;4.530;2023-08-06T00:26:48;9.23;;;9.23;;
73132;SDS011;61320;52.008;4.530;2023-08-06T00:29:14;9.17;;;9.17;;
73132;SDS011;61320;52.008;4.530;2023-08-06T00:31:39;8.80;;;8.80;;
73132;SDS011;61320;52.008;4.530;2023-08-06T00:34:05;9.14;;;9.14;;
73132;SDS011;61320;52.008;4.530;2023-08-06T00:36:30;9.10;;;9.10;;
73132;SDS011;61320;52.008;4.530;2023-08-06T00:38:56;8.84;;;8.84;;
73132;SDS011;61320;52.008;4.530;2023-08-06T00:41:21;9.19;;;9.19;;
73132;SDS011;61320;52.008;4.530;2023-08-06T00:43:47;9.32;;;9.32;;
73132;SDS011;61320;52.008;4.530;2023-08-06T00:46:12;9.14;;;9.14;;
73132;SDS011;61320;52.008;4.530;2023-08-06T00:48:38;8.56;;;8.56;;
73132;SDS011;61320;52.008;4.530;2023-08-06T00:51:06;8.66;;;8.66;;
73132;SDS011;61320;52.008;4.530;2023-08-06T00:53:31;9.05;;;9.05;;
73132;SDS011;61320;52.008;4.530;2023-08-06T00:55:57;8.95;;;8.95;;
73132;SDS011;61320;52.008;4.530;2023-08-06T00:58:23;9.00;;;9.00;;
73132;SDS011;61320;52.008;4.530;2023-08-06T01:00:50;9.13;;;9.13;;
73132;SDS011;61320;52.008;4.530;2023-08-06T01:03:15;9.13;;;9.13;;
73132;SDS011;61320;52.008;4.530;2023-08-06T01:05:41;8.78;;;8.78;;
73132;SDS011;61320;52.008;4.530;2023-08-06T01:08:22;8.85;;;8.85;;
73132;SDS011;61320;52.008;4.530;2023-08-06T01:14:09;9.31;;;9.31;;
73132;SDS011;61320;52.008;4.530;2023-08-06T01:16:46;8.66;;;8.66;;
73132;SDS011;61320;52.008;4.530;2023-08-06T01:19:18;9.05;;;9.05;;
73132;SDS011;61320;52.008;4.530;2023-08-06T01:21:45;9.23;;;9.23;;
73132;SDS011;61320;52.008;4.530;2023-08-06T01:24:10;8.83;;;8.83;;
73132;SDS011;61320;52.008;4.530;2023-08-06T01:26:39;8.91;;;8.91;;
73132;SDS011;61320;52.008;4.530;2023-08-06T01:31:46;8.74;;;8.74;;
73132;SDS011;61320;52.008;4.530;2023-08-06T01:34:22;8.80;;;8.80;;
73132;SDS011;61320;52.008;4.530;2023-08-06T01:36:50;9.32;;;9.32;;
73132;SDS011;61320;52.008;4.530;2023-08-06T01:39:16;9.38;;;9.38;;
73132;SDS011;61320;52.008;4.530;2023-08-06T01:41:41;9.66;;;9.66;;
73132;SDS011;61320;52.008;4.530;2023-08-06T01:44:07;9.06;;;9.06;;
73132;SDS011;61320;52.008;4.530;2023-08-06T01:46:32;9.02;;;9.02;;
73132;SDS011;61320;52.008;4.530;2023-08-06T01:48:58;9.28;;;9.28;;
73132;SDS011;61320;52.008;4.530;2023-08-06T01:51:23;9.79;;;9.79;;
73132;SDS011;61320;52.008;4.530;2023-08-06T01:53:49;9.31;;;9.31;;
73132;SDS011;61320;52.008;4.530;2023-08-06T01:56:14;9.90;;;9.90;;
73132;SDS011;61320;52.008;4.530;2023-08-06T01:58:39;10.11;;;10.11;;
73132;SDS011;61320;52.008;4.530;2023-08-06T02:01:05;9.84;;;9.84;;
73132;SDS011;61320;52.008;4.530;2023-08-06T02:03:30;10.46;;;10.46;;
73132;SDS011;61320;52.008;4.530;2023-08-06T02:05:56;9.96;;;9.96;;
73132;SDS011;61320;52.008;4.530;2023-08-06T02:08:22;10.43;;;10.43;;
73132;SDS011;61320;52.008;4.530;2023-08-06T02:10:48;10.43;;;10.43;;
73132;SDS011;61320;52.008;4.530;2023-08-06T02:13:14;10.06;;;10.06;;
73132;SDS011;61320;52.008;4.530;2023-08-06T02:15:45;10.51;;;10.51;;
73132;SDS011;61320;52.008;4.530;2023-08-06T02:18:13;10.71;;;10.71;;
73132;SDS011;61320;52.008;4.530;2023-08-06T02:20:40;10.19;;;10.19;;
73132;SDS011;61320;52.008;4.530;2023-08-06T02:23:06;10.03;;;10.03;;
73132;SDS011;61320;52.008;4.530;2023-08-06T02:25:31;10.01;;;10.01;;
73132;SDS011;61320;52.008;4.530;2023-08-06T02:27:57;9.86;;;9.86;;
73132;SDS011;61320;52.008;4.530;2023-08-06T02:30:22;10.20;;;10.20;;
73132;SDS011;61320;52.008;4.530;2023-08-06T02:32:48;10.39;;;10.39;;
73132;SDS011;61320;52.008;4.530;2023-08-06T02:35:13;10.19;;;10.19;;
73132;SDS011;61320;52.008;4.530;2023-08-06T02:37:39;10.09;;;10.09;;
73132;SDS011;61320;52.008;4.530;2023-08-06T02:40:04;10.43;;;10.43;;
73132;SDS011;61320;52.008;4.530;2023-08-06T02:42:30;9.50;;;9.50;;
73132;SDS011;61320;52.008;4.530;2023-08-06T02:44:55;9.45;;;9.45;;
73132;SDS011;61320;52.008;4.530;2023-08-06T02:47:21;8.88;;;8.88;;
73132;SDS011;61320;52.008;4.530;2023-08-06T02:49:46;8.15;;;8.15;;
73132;SDS011;61320;52.008;4.530;2023-08-06T02:52:12;8.53;;;8.53;;
73132;SDS011;61320;52.008;4.530;2023-08-06T02:54:38;7.01;;;7.01;;
73132;SDS011;61320;52.008;4.530;2023-08-06T02:57:04;6.35;;;6.35;;
73132;SDS011;61320;52.008;4.530;2023-08-06T02:59:30;5.62;;;5.62;;
73132;SDS011;61320;52.008;4.530;2023-08-06T03:01:56;4.84;;;4.84;;
73132;SDS011;61320;52.008;4.530;2023-08-06T03:04:22;4.12;;;4.12;;
73132;SDS011;61320;52.008;4.530;2023-08-06T03:06:49;3.74;;;3.74;;
73132;SDS011;61320;52.008;4.530;2023-08-06T03:09:15;3.55;;;3.55;;
73132;SDS011;61320;52.008;4.530;2023-08-06T03:11:40;3.47;;;3.47;;
73132;SDS011;61320;52.008;4.530;2023-08-06T03:14:06;2.51;;;2.51;;
73132;SDS011;61320;52.008;4.530;2023-08-06T03:16:31;1.70;;;1.70;;
73132;SDS011;61320;52.008;4.530;2023-08-06T03:18:56;1.99;;;1.99;;
73132;SDS011;61320;52.008;4.530;2023-08-06T03:21:22;1.96;;;1.96;;
73132;SDS011;61320;52.008;4.530;2023-08-06T03:23:47;1.79;;;1.79;;
73132;SDS011;61320;52.008;4.530;2023-08-06T03:26:13;1.51;;;1.51;;
73132;SDS011;61320;52.008;4.530;2023-08-06T03:28:39;1.55;;;1.55;;
73132;SDS011;61320;52.008;4.530;2023-08-06T03:31:04;1.29;;;1.29;;
73132;SDS011;61320;52.008;4.530;2023-08-06T03:33:30;1.39;;;1.39;;
73132;SDS011;61320;52.008;4.530;2023-08-06T03:35:56;1.53;;;1.53;;
73132;SDS011;61320;52.008;4.530;2023-08-06T03:38:21;2.06;;;2.06;;
73132;SDS011;61320;52.008;4.530;2023-08-06T03:40:48;2.28;;;2.28;;
73132;SDS011;61320;52.008;4.530;2023-08-06T03:43:13;2.74;;;2.74;;
73132;SDS011;61320;52.008;4.530;2023-08-06T03:45:40;3.37;;;3.37;;
73132;SDS011;61320;52.008;4.530;2023-08-06T03:48:05;4.36;;;4.36;;
73132;SDS011;61320;52.008;4.530;2023-08-06T03:50:32;4.54;;;4.54;;
73132;SDS011;61320;52.008;4.530;2023-08-06T03:52:57;5.63;;;5.63;;
73132;SDS011;61320;52.008;4.530;2023-08-06T03:55:23;6.53;;;6.53;;
73132;SDS011;61320;52.008;4.530;2023-08-06T03:57:48;7.00;;;7.00;;
73132;SDS011;61320;52.008;4.530;2023-08-06T04:00:14;7.13;;;7.13;;
73132;SDS011;61320;52.008;4.530;2023-08-06T04:02:39;6.00;;;6.00;;
73132;SDS011;61320;52.008;4.530;2023-08-06T04:05:05;5.17;;;5.17;;
73132;SDS011;61320;52.008;4.530;2023-08-06T04:07:30;4.86;;;4.86;;
73132;SDS011;61320;52.008;4.530;2023-08-06T04:09:59;4.40;;;4.40;;
73132;SDS011;61320;52.008;4.530;2023-08-06T04:12:28;4.04;;;4.04;;
73132;SDS011;61320;52.008;4.530;2023-08-06T04:14:54;4.28;;;4.28;;
73132;SDS011;61320;52.008;4.530;2023-08-06T04:17:21;4.15;;;4.15;;
73132;SDS011;61320;52.008;4.530;2023-08-06T04:19:51;3.96;;;3.96;;
73132;SDS011;61320;52.008;4.530;2023-08-06T04:22:16;4.03;;;4.03;;
73132;SDS011;61320;52.008;4.530;2023-08-06T04:24:43;4.20;;;4.20;;
73132;SDS011;61320;52.008;4.530;2023-08-06T04:27:09;4.23;;;4.23;;
73132;SDS011;61320;52.008;4.530;2023-08-06T04:29:35;4.14;;;4.14;;
73132;SDS011;61320;52.008;4.530;2023-08-06T04:32:00;4.18;;;4.18;;
73132;SDS011;61320;52.008;4.530;2023-08-06T04:34:26;3.94;;;3.94;;
73132;SDS011;61320;52.008;4.530;2023-08-06T04:36:51;3.78;;;3.78;;
73132;SDS011;61320;52.008;4.530;2023-08-06T04:39:17;4.33;;;4.33;;
73132;SDS011;61320;52.008;4.530;2023-08-06T04:41:42;4.18;;;4.18;;
73132;SDS011;61320;52.008;4.530;2023-08-06T04:44:08;3.97;;;3.97;;
73132;SDS011;61320;52.008;4.530;2023-08-06T04:46:33;3.99;;;3.99;;
73132;SDS011;61320;52.008;4.530;2023-08-06T04:48:59;4.33;;;4.33;;
73132;SDS011;61320;52.008;4.530;2023-08-06T04:51:24;3.94;;;3.94;;
73132;SDS011;61320;52.008;4.530;2023-08-06T04:53:50;4.07;;;4.07;;
73132;SDS011;61320;52.008;4.530;2023-08-06T04:56:15;4.09;;;4.09;;
73132;SDS011;61320;52.008;4.530;2023-08-06T04:58:41;4.25;;;4.25;;
73132;SDS011;61320;52.008;4.530;2023-08-06T05:01:06;4.16;;;4.16;;
73132;SDS011;61320;52.008;4.530;2023-08-06T05:03:32;4.14;;;4.14;;
73132;SDS011;61320;52.008;4.530;2023-08-06T05:05:57;4.69;;;4.69;;
73132;SDS011;61320;52.008;4.530;2023-08-06T05:08:22;4.43;;;4.43;;
73132;SDS011;61320;52.008;4.530;2023-08-06T05:10:48;4.67;;;4.67;;
73132;SDS011;61320;52.008;4.530;2023-08-06T05:13:13;4.82;;;4.82;;
73132;SDS011;61320;52.008;4.530;2023-08-06T05:15:39;4.74;;;4.74;;
73132;SDS011;61320;52.008;4.530;2023-08-06T05:18:07;4.78;;;4.78;;
73132;SDS011;61320;52.008;4.530;2023-08-06T05:20:35;4.93;;;4.93;;
73132;SDS011;61320;52.008;4.530;2023-08-06T05:23:01;4.88;;;4.88;;
73132;SDS011;61320;52.008;4.530;2023-08-06T05:25:27;4.90;;;4.90;;
73132;SDS011;61320;52.008;4.530;2023-08-06T05:27:52;4.83;;;4.83;;
73132;SDS011;61320;52.008;4.530;2023-08-06T05:30:18;4.98;;;4.98;;
73132;SDS011;61320;52.008;4.530;2023-08-06T05:32:43;4.96;;;4.96;;
73132;SDS011;61320;52.008;4.530;2023-08-06T05:35:09;4.78;;;4.78;;
73132;SDS011;61320;52.008;4.530;2023-08-06T05:37:34;5.16;;;5.16;;
73132;SDS011;61320;52.008;4.530;2023-08-06T05:40:00;5.08;;;5.08;;
73132;SDS011;61320;52.008;4.530;2023-08-06T05:42:26;4.72;;;4.72;;
73132;SDS011;61320;52.008;4.530;2023-08-06T05:44:52;5.06;;;5.06;;
73132;SDS011;61320;52.008;4.530;2023-08-06T05:47:17;4.59;;;4.59;;
73132;SDS011;61320;52.008;4.530;2023-08-06T05:49:44;4.39;;;4.39;;
73132;SDS011;61320;52.008;4.530;2023-08-06T05:52:10;4.40;;;4.40;;
73132;SDS011;61320;52.008;4.530;2023-08-06T05:54:35;4.09;;;4.09;;
73132;SDS011;61320;52.008;4.530;2023-08-06T05:57:01;4.18;;;4.18;;
73132;SDS011;61320;52.008;4.530;2023-08-06T05:59:26;4.15;;;4.15;;
73132;SDS011;61320;52.008;4.530;2023-08-06T06:01:52;3.86;;;3.86;;
73132;SDS011;61320;52.008;4.530;2023-08-06T06:04:17;3.81;;;3.81;;
73132;SDS011;61320;52.008;4.530;2023-08-06T06:06:43;3.67;;;3.67;;
73132;SDS011;61320;52.008;4.530;2023-08-06T06:09:09;3.34;;;3.34;;
73132;SDS011;61320;52.008;4.530;2023-08-06T06:11:35;3.40;;;3.40;;
73132;SDS011;61320;52.008;4.530;2023-08-06T06:14:00;3.33;;;3.33;;
73132;SDS011;61320;52.008;4.530;2023-08-06T06:16:26;3.13;;;3.13;;
73132;SDS011;61320;52.008;4.530;2023-08-06T06:18:52;2.85;;;2.85;;
73132;SDS011;61320;52.008;4.530;2023-08-06T06:21:17;2.62;;;2.62;;
73132;SDS011;61320;52.008;4.530;2023-08-06T06:23:42;2.24;;;2.24;;
73132;SDS011;61320;52.008;4.530;2023-08-06T06:26:08;2.40;;;2.39;;
73132;SDS011;61320;52.008;4.530;2023-08-06T06:28:35;2.32;;;2.30;;
73132;SDS011;61320;52.008;4.530;2023-08-06T06:31:00;2.22;;;2.21;;
73132;SDS011;61320;52.008;4.530;2023-08-06T06:33:26;2.00;;;1.99;;
73132;SDS011;61320;52.008;4.530;2023-08-06T06:35:52;2.12;;;2.09;;
73132;SDS011;61320;52.008;4.530;2023-08-06T06:38:17;1.89;;;1.85;;
73132;SDS011;61320;52.008;4.530;2023-08-06T06:40:43;1.99;;;1.92;;
73132;SDS011;61320;52.008;4.530;2023-08-06T06:43:08;1.67;;;1.63;;
73132;SDS011;61320;52.008;4.530;2023-08-06T06:45:34;1.73;;;1.70;;
73132;SDS011;61320;52.008;4.530;2023-08-06T06:47:59;1.82;;;1.80;;
73132;SDS011;61320;52.008;4.530;2023-08-06T06:50:25;1.67;;;1.63;;
73132;SDS011;61320;52.008;4.530;2023-08-06T06:52:51;1.66;;;1.63;;
73132;SDS011;61320;52.008;4.530;2023-08-06T06:55:17;1.86;;;1.82;;
73132;SDS011;61320;52.008;4.530;2023-08-06T06:57:43;1.88;;;1.85;;
73132;SDS011;61320;52.008;4.530;2023-08-06T07:00:09;1.71;;;1.68;;
73132;SDS011;61320;52.008;4.530;2023-08-06T07:02:35;1.77;;;1.75;;
73132;SDS011;61320;52.008;4.530;2023-08-06T07:05:00;1.84;;;1.82;;
73132;SDS011;61320;52.008;4.530;2023-08-06T07:07:25;1.78;;;1.76;;
73132;SDS011;61320;52.008;4.530;2023-08-06T07:09:51;2.03;;;2.01;;
73132;SDS011;61320;52.008;4.530;2023-08-06T07:12:16;2.04;;;2.02;;
73132;SDS011;61320;52.008;4.530;2023-08-06T07:14:42;2.19;;;2.18;;
73132;SDS011;61320;52.008;4.530;2023-08-06T07:17:07;2.26;;;2.24;;
73132;SDS011;61320;52.008;4.530;2023-08-06T07:19:32;2.25;;;2.23;;
73132;SDS011;61320;52.008;4.530;2023-08-06T07:21:58;2.46;;;2.46;;
73132;SDS011;61320;52.008;4.530;2023-08-06T07:24:23;2.39;;;2.39;;
73132;SDS011;61320;52.008;4.530;2023-08-06T07:26:49;2.40;;;2.39;;
73132;SDS011;61320;52.008;4.530;2023-08-06T07:29:14;2.41;;;2.39;;
73132;SDS011;61320;52.008;4.530;2023-08-06T07:31:45;2.54;;;2.52;;
73132;SDS011;61320;52.008;4.530;2023-08-06T07:34:10;2.85;;;2.83;;
73132;SDS011;61320;52.008;4.530;2023-08-06T07:36:35;2.82;;;2.78;;
73132;SDS011;61320;52.008;4.530;2023-08-06T07:39:01;3.13;;;3.10;;
73132;SDS011;61320;52.008;4.530;2023-08-06T07:41:26;2.66;;;2.66;;
73132;SDS011;61320;52.008;4.530;2023-08-06T07:43:52;2.64;;;2.64;;
73132;SDS011;61320;52.008;4.530;2023-08-06T07:46:17;2.91;;;2.91;;
73132;SDS011;61320;52.008;4.530;2023-08-06T07:48:43;3.21;;;3.18;;
73132;SDS011;61320;52.008;4.530;2023-08-06T07:51:08;3.50;;;3.46;;
73132;SDS011;61320;52.008;4.530;2023-08-06T07:53:34;3.27;;;3.27;;
73132;SDS011;61320;52.008;4.530;2023-08-06T07:55:59;3.50;;;3.50;;
73132;SDS011;61320;52.008;4.530;2023-08-06T07:58:27;3.68;;;3.68;;
73132;SDS011;61320;52.008;4.530;2023-08-06T08:00:54;3.44;;;3.44;;
73132;SDS011;61320;52.008;4.530;2023-08-06T08:03:19;2.98;;;2.98;;
73132;SDS011;61320;52.008;4.530;2023-08-06T08:05:45;3.09;;;3.07;;
73132;SDS011;61320;52.008;4.530;2023-08-06T08:08:11;3.37;;;3.32;;
73132;SDS011;61320;52.008;4.530;2023-08-06T08:10:37;3.37;;;3.35;;
73132;SDS011;61320;52.008;4.530;2023-08-06T08:13:03;3.16;;;3.12;;
73132;SDS011;61320;52.008;4.530;2023-08-06T08:15:30;2.94;;;2.92;;
73132;SDS011;61320;52.008;4.530;2023-08-06T08:17:57;2.89;;;2.85;;
73132;SDS011;61320;52.008;4.530;2023-08-06T08:20:23;3.16;;;3.15;;
73132;SDS011;61320;52.008;4.530;2023-08-06T08:22:48;3.08;;;3.08;;
73132;SDS011;61320;52.008;4.530;2023-08-06T08:25:15;3.15;;;3.15;;
73132;SDS011;61320;52.008;4.530;2023-08-06T08:27:41;3.18;;;3.17;;
73132;SDS011;61320;52.008;4.530;2023-08-06T08:30:07;3.29;;;3.27;;
73132;SDS011;61320;52.008;4.530;2023-08-06T08:32:33;3.16;;;3.14;;
73132;SDS011;61320;52.008;4.530;2023-08-06T08:34:58;3.23;;;3.20;;
73132;SDS011;61320;52.008;4.530;2023-08-06T08:37:24;3.09;;;3.08;;
73132;SDS011;61320;52.008;4.530;2023-08-06T08:39:49;3.02;;;3.01;;
73132;SDS011;61320;52.008;4.530;2023-08-06T08:42:15;2.76;;;2.74;;
73132;SDS011;61320;52.008;4.530;2023-08-06T08:44:42;2.72;;;2.72;;
73132;SDS011;61320;52.008;4.530;2023-08-06T08:47:08;2.80;;;2.80;;
73132;SDS011;61320;52.008;4.530;2023-08-06T08:49:35;2.94;;;2.94;;
73132;SDS011;61320;52.008;4.530;2023-08-06T08:52:02;2.88;;;2.87;;
73132;SDS011;61320;52.008;4.530;2023-08-06T08:54:31;2.62;;;2.62;;
73132;SDS011;61320;52.008;4.530;2023-08-06T08:56:59;2.96;;;2.96;;
73132;SDS011;61320;52.008;4.530;2023-08-06T08:59:24;2.93;;;2.93;;
73132;SDS011;61320;52.008;4.530;2023-08-06T09:01:51;2.85;;;2.85;;
73132;SDS011;61320;52.008;4.530;2023-08-06T09:04:19;2.63;;;2.63;;
73132;SDS011;61320;52.008;4.530;2023-08-06T09:06:46;2.50;;;2.50;;
73132;SDS011;61320;52.008;4.530;2023-08-06T09:09:22;2.57;;;2.57;;
73132;SDS011;61320;52.008;4.530;2023-08-06T09:11:53;2.63;;;2.63;;
73132;SDS011;61320;52.008;4.530;2023-08-06T09:14:27;2.77;;;2.77;;
73132;SDS011;61320;52.008;4.530;2023-08-06T09:16:52;2.61;;;2.61;;
73132;SDS011;61320;52.008;4.530;2023-08-06T09:19:19;3.20;;;3.20;;
73132;SDS011;61320;52.008;4.530;2023-08-06T09:21:45;2.53;;;2.53;;
73132;SDS011;61320;52.008;4.530;2023-08-06T09:24:14;2.63;;;2.63;;
73132;SDS011;61320;52.008;4.530;2023-08-06T09:26:41;2.81;;;2.81;;
73132;SDS011;61320;52.008;4.530;2023-08-06T09:29:09;2.41;;;2.40;;
73132;SDS011;61320;52.008;4.530;2023-08-06T09:31:42;2.78;;;2.77;;
73132;SDS011;61320;52.008;4.530;2023-08-06T09:34:26;2.29;;;2.29;;
73132;SDS011;61320;52.008;4.530;2023-08-06T09:36:52;2.44;;;2.44;;
73132;SDS011;61320;52.008;4.530;2023-08-06T09:39:26;2.50;;;2.50;;
73132;SDS011;61320;52.008;4.530;2023-08-06T09:41:55;2.43;;;2.43;;
73132;SDS011;61320;52.008;4.530;2023-08-06T09:44:21;2.44;;;2.44;;
73132;SDS011;61320;52.008;4.530;2023-08-06T09:46:52;2.36;;;2.36;;
73132;SDS011;61320;52.008;4.530;2023-08-06T09:49:18;2.50;;;2.50;;
73132;SDS011;61320;52.008;4.530;2023-08-06T09:51:45;2.22;;;2.22;;
73132;SDS011;61320;52.008;4.530;2023-08-06T09:54:13;2.19;;;2.19;;
73132;SDS011;61320;52.008;4.530;2023-08-06T09:56:40;2.02;;;2.02;;
73132;SDS011;61320;52.008;4.530;2023-08-06T09:59:07;1.90;;;1.90;;
73132;SDS011;61320;52.008;4.530;2023-08-06T10:01:33;2.09;;;2.09;;
73132;SDS011;61320;52.008;4.530;2023-08-06T10:04:00;1.99;;;1.99;;
73132;SDS011;61320;52.008;4.530;2023-08-06T10:06:26;2.05;;;2.03;;
73132;SDS011;61320;52.008;4.530;2023-08-06T10:08:53;2.22;;;2.17;;
73132;SDS011;61320;52.008;4.530;2023-08-06T10:11:19;2.08;;;2.04;;
73132;SDS011;61320;52.008;4.530;2023-08-06T10:13:47;2.11;;;2.11;;
73132;SDS011;61320;52.008;4.530;2023-08-06T10:16:13;2.12;;;2.12;;
73132;SDS011;61320;52.008;4.530;2023-08-06T10:18:40;2.05;;;2.05;;
73132;SDS011;61320;52.008;4.530;2023-08-06T10:21:09;1.85;;;1.84;;
73132;SDS011;61320;52.008;4.530;2023-08-06T10:23:35;1.80;;;1.80;;
73132;SDS011;61320;52.008;4.530;2023-08-06T10:26:05;1.99;;;1.98;;
73132;SDS011;61320;52.008;4.530;2023-08-06T10:28:34;2.00;;;1.99;;
73132;SDS011;61320;52.008;4.530;2023-08-06T10:31:01;1.77;;;1.77;;
73132;SDS011;61320;52.008;4.530;2023-08-06T10:33:46;2.02;;;2.02;;
73132;SDS011;61320;52.008;4.530;2023-08-06T10:36:13;2.16;;;2.16;;
73132;SDS011;61320;52.008;4.530;2023-08-06T10:38:49;2.19;;;2.19;;
73132;SDS011;61320;52.008;4.530;2023-08-06T10:41:17;2.10;;;2.10;;
73132;SDS011;61320;52.008;4.530;2023-08-06T10:43:49;1.97;;;1.97;;
73132;SDS011;61320;52.008;4.530;2023-08-06T10:46:21;1.94;;;1.94;;
73132;SDS011;61320;52.008;4.530;2023-08-06T10:48:49;2.14;;;2.14;;
73132;SDS011;61320;52.008;4.530;2023-08-06T10:51:14;2.04;;;2.04;;
73132;SDS011;61320;52.008;4.530;2023-08-06T10:53:44;2.04;;;2.04;;
73132;SDS011;61320;52.008;4.530;2023-08-06T10:56:16;1.95;;;1.95;;
73132;SDS011;61320;52.008;4.530;2023-08-06T10:58:49;1.93;;;1.93;;
73132;SDS011;61320;52.008;4.530;2023-08-06T11:01:16;1.90;;;1.90;;
73132;SDS011;61320;52.008;4.530;2023-08-06T11:03:44;2.18;;;2.18;;
73132;SDS011;61320;52.008;4.530;2023-08-06T11:06:10;2.23;;;2.23;;
73132;SDS011;61320;52.008;4.530;2023-08-06T11:08:37;1.81;;;1.81;;
73132;SDS011;61320;52.008;4.530;2023-08-06T11:11:15;1.88;;;1.88;;
73132;SDS011;61320;52.008;4.530;2023-08-06T11:13:42;1.98;;;1.98;;
73132;SDS011;61320;52.008;4.530;2023-08-06T11:16:08;1.67;;;1.67;;
73132;SDS011;61320;52.008;4.530;2023-08-06T11:18:34;2.13;;;2.13;;
73132;SDS011;61320;52.008;4.530;2023-08-06T11:21:00;2.02;;;2.02;;
73132;SDS011;61320;52.008;4.530;2023-08-06T11:23:29;1.88;;;1.88;;
73132;SDS011;61320;52.008;4.530;2023-08-06T11:25:55;2.01;;;2.01;;
73132;SDS011;61320;52.008;4.530;2023-08-06T11:28:20;1.77;;;1.77;;
73132;SDS011;61320;52.008;4.530;2023-08-06T11:30:49;1.68;;;1.68;;
73132;SDS011;61320;52.008;4.530;2023-08-06T11:33:19;1.62;;;1.62;;
73132;SDS011;61320;52.008;4.530;2023-08-06T11:35:45;1.55;;;1.55;;
73132;SDS011;61320;52.008;4.530;2023-08-06T11:38:11;1.45;;;1.45;;
73132;SDS011;61320;52.008;4.530;2023-08-06T11:40:38;1.53;;;1.53;;
73132;SDS011;61320;52.008;4.530;2023-08-06T11:43:05;1.44;;;1.44;;
73132;SDS011;61320;52.008;4.530;2023-08-06T11:45:30;1.58;;;1.58;;
73132;SDS011;61320;52.008;4.530;2023-08-06T11:47:55;1.37;;;1.37;;
73132;SDS011;61320;52.008;4.530;2023-08-06T11:50:21;1.38;;;1.38;;
73132;SDS011;61320;52.008;4.530;2023-08-06T11:52:47;1.45;;;1.45;;
73132;SDS011;61320;52.008;4.530;2023-08-06T11:55:12;1.29;;;1.29;;
73132;SDS011;61320;52.008;4.530;2023-08-06T11:57:40;1.35;;;1.35;;
73132;SDS011;61320;52.008;4.530;2023-08-06T12:00:11;1.24;;;1.24;;
73132;SDS011;61320;52.008;4.530;2023-08-06T12:02:40;0.97;;;0.97;;
73132;SDS011;61320;52.008;4.530;2023-08-06T12:05:13;1.00;;;1.00;;
73132;SDS011;61320;52.008;4.530;2023-08-06T12:10:27;0.77;;;0.77;;
73132;SDS011;61320;52.008;4.530;2023-08-06T12:12:56;0.85;;;0.85;;
73132;SDS011;61320;52.008;4.530;2023-08-06T12:15:22;0.86;;;0.85;;
73132;SDS011;61320;52.008;4.530;2023-08-06T12:17:49;0.86;;;0.85;;
73132;SDS011;61320;52.008;4.530;2023-08-06T12:20:15;0.98;;;0.96;;
73132;SDS011;61320;52.008;4.530;2023-08-06T12:22:40;0.97;;;0.95;;
73132;SDS011;61320;52.008;4.530;2023-08-06T12:25:07;0.91;;;0.89;;
73132;SDS011;61320;52.008;4.530;2023-08-06T12:27:37;0.95;;;0.92;;
73132;SDS011;61320;52.008;4.530;2023-08-06T12:30:04;1.08;;;1.05;;
73132;SDS011;61320;52.008;4.530;2023-08-06T12:32:30;1.03;;;0.99;;
73132;SDS011;61320;52.008;4.530;2023-08-06T12:34:56;0.98;;;0.94;;
73132;SDS011;61320;52.008;4.530;2023-08-06T12:37:21;1.09;;;1.06;;
73132;SDS011;61320;52.008;4.530;2023-08-06T12:39:48;1.09;;;1.04;;
73132;SDS011;61320;52.008;4.530;2023-08-06T12:42:13;0.95;;;0.92;;
73132;SDS011;61320;52.008;4.530;2023-08-06T12:44:39;0.88;;;0.85;;
73132;SDS011;61320;52.008;4.530;2023-08-06T12:47:04;0.99;;;0.95;;
73132;SDS011;61320;52.008;4.530;2023-08-06T12:49:30;1.07;;;1.01;;
73132;SDS011;61320;52.008;4.530;2023-08-06T12:51:56;0.88;;;0.84;;
73132;SDS011;61320;52.008;4.530;2023-08-06T12:54:23;0.92;;;0.88;;
73132;SDS011;61320;52.008;4.530;2023-08-06T12:56:48;0.95;;;0.90;;
73132;SDS011;61320;52.008;4.530;2023-08-06T12:59:15;0.73;;;0.69;;
73132;SDS011;61320;52.008;4.530;2023-08-06T13:01:42;0.78;;;0.74;;
73132;SDS011;61320;52.008;4.530;2023-08-06T13:04:09;0.96;;;0.92;;
73132;SDS011;61320;52.008;4.530;2023-08-06T13:06:35;0.79;;;0.75;;
73132;SDS011;61320;52.008;4.530;2023-08-06T13:09:11;1.00;;;0.95;;
73132;SDS011;61320;52.008;4.530;2023-08-06T13:11:38;0.94;;;0.88;;
73132;SDS011;61320;52.008;4.530;2023-08-06T13:14:10;0.94;;;0.89;;
73132;SDS011;61320;52.008;4.530;2023-08-06T13:16:38;0.86;;;0.81;;
73132;SDS011;61320;52.008;4.530;2023-08-06T13:19:06;0.80;;;0.76;;
73132;SDS011;61320;52.008;4.530;2023-08-06T13:21:33;0.87;;;0.82;;
73132;SDS011;61320;52.008;4.530;2023-08-06T13:24:03;1.12;;;1.05;;
73132;SDS011;61320;52.008;4.530;2023-08-06T13:26:29;0.94;;;0.87;;
73132;SDS011;61320;52.008;4.530;2023-08-06T13:28:55;0.99;;;0.93;;
73132;SDS011;61320;52.008;4.530;2023-08-06T13:31:21;1.05;;;0.98;;
73132;SDS011;61320;52.008;4.530;2023-08-06T13:33:47;0.83;;;0.79;;
73132;SDS011;61320;52.008;4.530;2023-08-06T13:36:13;0.97;;;0.92;;
73132;SDS011;61320;52.008;4.530;2023-08-06T13:38:39;1.65;;;1.49;;
73132;SDS011;61320;52.008;4.530;2023-08-06T13:41:04;2.11;;;1.77;;
73132;SDS011;61320;52.008;4.530;2023-08-06T13:43:31;3.02;;;2.29;;
73132;SDS011;61320;52.008;4.530;2023-08-06T13:45:56;2.76;;;1.99;;
73132;SDS011;61320;52.008;4.530;2023-08-06T13:48:22;3.97;;;2.74;;
73132;SDS011;61320;52.008;4.530;2023-08-06T13:50:48;3.50;;;2.33;;
73132;SDS011;61320;52.008;4.530;2023-08-06T13:53:13;3.52;;;2.28;;
73132;SDS011;61320;52.008;4.530;2023-08-06T13:55:39;3.83;;;2.44;;
73132;SDS011;61320;52.008;4.530;2023-08-06T13:58:04;3.68;;;2.30;;
73132;SDS011;61320;52.008;4.530;2023-08-06T14:00:30;2.87;;;1.80;;
73132;SDS011;61320;52.008;4.530;2023-08-06T14:02:55;3.18;;;1.98;;
73132;SDS011;61320;52.008;4.530;2023-08-06T14:05:21;2.46;;;1.54;;
73132;SDS011;61320;52.008;4.530;2023-08-06T14:07:46;3.06;;;1.92;;
73132;SDS011;61320;52.008;4.530;2023-08-06T14:10:11;2.51;;;1.59;;
73132;SDS011;61320;52.008;4.530;2023-08-06T14:12:37;2.51;;;1.60;;
73132;SDS011;61320;52.008;4.530;2023-08-06T14:15:03;2.66;;;1.72;;
73132;SDS011;61320;52.008;4.530;2023-08-06T14:17:28;2.95;;;1.91;;
73132;SDS011;61320;52.008;4.530;2023-08-06T14:19:54;2.79;;;1.80;;
73132;SDS011;61320;52.008;4.530;2023-08-06T14:22:19;3.17;;;2.05;;
73132;SDS011;61320;52.008;4.530;2023-08-06T14:24:47;2.97;;;1.92;;
73132;SDS011;61320;52.008;4.530;2023-08-06T14:27:12;3.35;;;2.15;;
73132;SDS011;61320;52.008;4.530;2023-08-06T14:29:37;3.01;;;1.93;;
73132;SDS011;61320;52.008;4.530;2023-08-06T14:32:03;3.43;;;2.21;;
73132;SDS011;61320;52.008;4.530;2023-08-06T14:34:28;3.35;;;2.17;;
73132;SDS011;61320;52.008;4.530;2023-08-06T14:36:54;3.90;;;2.52;;
73132;SDS011;61320;52.008;4.530;2023-08-06T14:39:19;4.24;;;2.76;;
73132;SDS011;61320;52.008;4.530;2023-08-06T14:41:45;3.82;;;2.53;;
73132;SDS011;61320;52.008;4.530;2023-08-06T14:44:10;3.76;;;2.46;;
73132;SDS011;61320;52.008;4.530;2023-08-06T14:46:36;3.28;;;2.18;;
73132;SDS011;61320;52.008;4.530;2023-08-06T14:49:02;3.44;;;2.30;;